createdAt,value
2019-03-20T00:01:44.103Z,85.81
2019-03-20T00:04:16.636Z,85.90
2019-03-20T00:06:48.903Z,85.99
2019-03-20T00:09:20.957Z,86.04
2019-03-20T00:11:53.236Z,86.10
2019-03-20T00:14:25.764Z,86.07
2019-03-20T00:16:58.086Z,86.04
2019-03-20T00:19:30.591Z,86.10
2019-03-20T00:22:03.031Z,86.14
2019-03-20T00:24:35.405Z,86.07
2019-03-20T00:27:08.082Z,86.02
2019-03-20T00:29:40.762Z,85.97
2019-03-20T00:32:13.342Z,85.91
2019-03-20T00:34:45.608Z,85.91
2019-03-20T00:37:18.183Z,85.87
2019-03-20T00:39:50.556Z,85.70
2019-03-20T00:42:22.518Z,85.70
2019-03-20T00:44:54.788Z,85.65
2019-03-20T00:47:26.742Z,85.52
2019-03-20T00:49:59.027Z,85.50
2019-03-20T00:52:31.493Z,85.44
2019-03-20T00:55:03.416Z,85.47
2019-03-20T00:57:35.836Z,84.24
2019-03-20T01:00:27.664Z,84.24
2019-03-20T01:03:00.132Z,83.55
2019-03-20T01:05:33.837Z,84.83
2019-03-20T01:08:06.208Z,85.44
2019-03-20T01:10:38.577Z,85.44
2019-03-20T01:13:11.262Z,86.59
2019-03-20T01:15:43.539Z,87.90
2019-03-20T01:18:15.899Z,87.90
2019-03-20T01:20:48.270Z,87.84
2019-03-20T01:23:20.233Z,87.92
2019-03-20T01:25:52.614Z,87.98
2019-03-20T01:28:24.980Z,88.07
2019-03-20T01:30:57.452Z,88.23
2019-03-20T01:33:29.822Z,88.23
2019-03-20T01:36:02.195Z,88.22
2019-03-20T01:38:34.672Z,88.22
2019-03-20T01:41:07.041Z,88.14
2019-03-20T01:43:39.110Z,87.14
2019-03-20T01:46:11.376Z,87.14
2019-03-20T01:48:43.343Z,87.39
2019-03-20T01:51:23.491Z,87.98
2019-03-20T01:53:55.867Z,88.58
2019-03-20T01:56:29.366Z,88.88
2019-03-20T01:59:02.043Z,88.75
2019-03-20T02:01:33.973Z,88.05
2019-03-20T02:04:06.477Z,88.05
2019-03-20T02:06:39.003Z,87.72
2019-03-20T02:09:11.428Z,87.77
2019-03-20T02:11:43.805Z,88.41
2019-03-20T02:14:16.169Z,89.12
2019-03-20T02:16:48.857Z,89.41
2019-03-20T02:19:21.138Z,89.71
2019-03-20T02:21:53.067Z,89.91
2019-03-20T02:24:25.661Z,89.84
2019-03-20T02:26:58.031Z,89.68
2019-03-20T02:29:30.757Z,89.56
2019-03-20T02:32:02.633Z,89.61
2019-03-20T02:34:35.052Z,89.85
2019-03-20T02:37:06.976Z,90.05
2019-03-20T02:39:39.285Z,90.28
2019-03-20T02:42:11.648Z,90.38
2019-03-20T02:44:44.019Z,90.45
2019-03-20T02:47:15.940Z,90.41
2019-03-20T02:49:48.515Z,90.36
2019-03-20T02:52:20.831Z,90.31
2019-03-20T02:54:53.203Z,90.28
2019-03-20T02:57:25.131Z,90.20
2019-03-20T02:59:57.844Z,90.14
2019-03-20T03:02:30.213Z,90.10
2019-03-20T03:05:02.196Z,90.16
2019-03-20T03:07:34.345Z,90.18
2019-03-20T03:10:10.909Z,90.18
2019-03-20T03:12:42.838Z,90.17
2019-03-20T03:15:15.704Z,90.19
2019-03-20T03:17:47.622Z,90.14
2019-03-20T03:20:19.994Z,89.96
2019-03-20T03:22:52.620Z,89.88
2019-03-20T03:25:24.624Z,89.80
2019-03-20T03:27:56.903Z,89.58
2019-03-20T03:30:29.380Z,89.91
2019-03-20T03:33:01.310Z,90.24
2019-03-20T03:35:33.270Z,90.44
2019-03-20T03:38:05.571Z,90.56
2019-03-20T03:40:37.944Z,90.60
2019-03-20T03:43:10.325Z,90.63
2019-03-20T03:45:42.688Z,90.59
2019-03-20T03:48:15.066Z,90.60
2019-03-20T03:50:48.398Z,90.59
2019-03-20T03:53:21.891Z,90.47
2019-03-20T03:55:54.224Z,90.47
2019-03-20T03:58:26.599Z,90.61
2019-03-20T04:00:58.970Z,90.68
2019-03-20T04:03:31.342Z,90.68
2019-03-20T04:06:03.713Z,90.64
2019-03-20T04:08:36.090Z,90.54
2019-03-20T04:11:08.461Z,90.52
2019-03-20T04:13:41.038Z,90.51
2019-03-20T04:16:13.611Z,90.63
2019-03-20T04:18:46.082Z,90.49
2019-03-20T04:21:18.455Z,90.63
2019-03-20T04:23:51.644Z,90.67
2019-03-20T04:26:24.022Z,90.67
2019-03-20T04:28:56.398Z,90.61
2019-03-20T04:31:28.870Z,90.49
2019-03-20T04:34:01.342Z,90.43
2019-03-20T04:36:33.714Z,90.37
2019-03-20T04:39:08.179Z,90.52
2019-03-20T04:41:40.503Z,90.76
2019-03-20T04:44:13.077Z,90.72
2019-03-20T04:46:45.658Z,90.85
2019-03-20T04:49:18.132Z,90.68
2019-03-20T04:51:50.873Z,90.60
2019-03-20T04:54:23.356Z,90.64
2019-03-20T04:56:56.222Z,90.65
2019-03-20T04:59:28.846Z,90.57
2019-03-20T05:02:01.522Z,90.63
2019-03-20T05:04:33.896Z,90.70
2019-03-20T05:07:06.377Z,90.75
2019-03-20T05:09:38.854Z,90.74
2019-03-20T05:12:11.215Z,90.72
2019-03-20T05:14:43.688Z,90.54
2019-03-20T05:17:16.068Z,89.74
2019-03-20T05:19:48.542Z,89.74
2019-03-20T05:22:20.909Z,90.06
2019-03-20T05:24:53.385Z,90.28
2019-03-20T05:27:25.861Z,90.34
2019-03-20T05:29:58.231Z,90.26
2019-03-20T05:32:30.605Z,90.17
2019-03-20T05:35:02.975Z,90.01
2019-03-20T05:37:35.347Z,90.00
2019-03-20T05:40:17.179Z,89.99
2019-03-20T05:42:49.518Z,89.84
2019-03-20T05:45:21.998Z,89.70
2019-03-20T05:47:54.466Z,89.57
2019-03-20T05:50:26.834Z,89.35
2019-03-20T05:52:59.256Z,89.15
2019-03-20T05:55:31.779Z,89.02
2019-03-20T05:58:04.155Z,88.83
2019-03-20T06:00:37.345Z,88.62
2019-03-20T06:03:09.518Z,88.33
2019-03-20T06:05:42.086Z,87.89
2019-03-20T06:08:14.454Z,87.64
2019-03-20T06:10:46.831Z,87.38
2019-03-20T06:13:19.203Z,87.22
2019-03-20T06:15:51.166Z,86.42
2019-03-20T06:18:23.742Z,85.95
2019-03-20T06:20:56.122Z,85.95
2019-03-20T06:23:28.039Z,85.76
2019-03-20T06:26:00.659Z,85.44
2019-03-20T06:28:33.029Z,85.26
2019-03-20T06:31:05.501Z,84.98
2019-03-20T06:33:38.691Z,84.65
2019-03-20T06:36:11.370Z,84.03
2019-03-20T06:38:43.523Z,83.73
2019-03-20T06:41:15.914Z,82.33
2019-03-20T06:43:48.279Z,82.33
2019-03-20T06:46:22.525Z,82.17
2019-03-20T06:48:56.610Z,81.25
2019-03-20T06:51:29.190Z,81.25
2019-03-20T06:54:03.502Z,80.80
2019-03-20T06:56:35.459Z,81.07
2019-03-20T06:59:32.102Z,80.28
2019-03-20T07:02:07.945Z,79.47
2019-03-20T07:05:07.450Z,79.06
2019-03-20T07:07:44.387Z,78.32
2019-03-20T07:10:33.903Z,77.69
2019-03-20T07:13:06.382Z,76.68
2019-03-20T07:15:38.965Z,77.03
2019-03-20T07:18:11.324Z,75.23
2019-03-20T07:20:43.705Z,75.40
2019-03-20T07:23:16.694Z,74.79
2019-03-20T07:25:48.650Z,73.55
2019-03-20T07:28:21.019Z,73.01
2019-03-20T07:30:53.397Z,73.59
2019-03-20T07:33:25.765Z,73.03
2019-03-20T07:35:58.142Z,72.45
2019-03-20T07:38:30.715Z,71.91
2019-03-20T07:41:03.199Z,71.66
2019-03-20T07:43:36.588Z,71.38
2019-03-20T07:46:08.966Z,69.98
2019-03-20T07:48:41.338Z,69.36
2019-03-20T07:51:13.902Z,69.12
2019-03-20T07:53:46.277Z,68.75
2019-03-20T07:56:18.757Z,69.42
2019-03-20T07:58:51.117Z,68.67
2019-03-20T08:01:23.073Z,68.23
2019-03-20T08:03:56.123Z,68.68
2019-03-20T08:06:28.543Z,68.42
2019-03-20T08:09:00.924Z,67.57
2019-03-20T08:11:34.191Z,67.13
2019-03-20T08:14:06.547Z,65.61
2019-03-20T08:16:38.961Z,65.39
2019-03-20T08:19:10.877Z,65.24
2019-03-20T08:21:43.289Z,65.57
2019-03-20T08:24:15.671Z,65.30
2019-03-20T08:26:48.043Z,64.77
2019-03-20T08:29:20.519Z,64.07
2019-03-20T08:31:52.886Z,63.45
2019-03-20T08:34:25.769Z,64.05
2019-03-20T08:36:58.131Z,63.59
2019-03-20T08:39:30.401Z,63.15
2019-03-20T08:42:02.786Z,61.84
2019-03-20T08:44:36.277Z,62.27
2019-03-20T08:47:08.656Z,61.59
2019-03-20T08:49:41.082Z,61.56
2019-03-20T08:52:13.397Z,61.58
2019-03-20T08:54:45.755Z,61.42
2019-03-20T08:57:18.131Z,61.12
2019-03-20T08:59:50.516Z,60.81
2019-03-20T09:02:23.900Z,59.71
2019-03-20T09:04:56.174Z,60.32
2019-03-20T09:07:28.551Z,59.94
2019-03-20T09:10:00.913Z,59.47
2019-03-20T09:12:32.868Z,58.93
2019-03-20T09:15:06.380Z,58.58
2019-03-20T09:17:39.169Z,55.17
2019-03-20T09:20:18.194Z,55.46
2019-03-20T09:22:50.659Z,56.07
2019-03-20T09:25:24.298Z,54.56
2019-03-20T09:27:56.637Z,54.45
2019-03-20T09:30:30.699Z,55.06
2019-03-20T09:33:03.025Z,52.59
2019-03-20T09:35:35.971Z,53.92
2019-03-20T09:38:08.270Z,53.89
2019-03-20T09:40:40.638Z,53.26
2019-03-20T09:43:13.127Z,50.12
2019-03-20T09:45:45.489Z,50.08
2019-03-20T09:48:17.874Z,47.45
2019-03-20T09:50:50.245Z,48.35
2019-03-20T09:53:22.616Z,43.46
2019-03-20T09:55:54.986Z,44.34
2019-03-20T09:58:27.348Z,44.01
2019-03-20T10:00:59.717Z,46.52
2019-03-20T10:03:32.093Z,44.18
2019-03-20T10:06:04.475Z,45.30
2019-03-20T10:08:36.834Z,40.99
2019-03-20T10:11:09.265Z,44.13
2019-03-20T10:13:41.685Z,44.50
2019-03-20T10:16:14.058Z,44.13
2019-03-20T10:18:46.427Z,43.56
2019-03-20T10:21:18.915Z,43.17
2019-03-20T10:23:50.850Z,44.37
2019-03-20T10:26:23.240Z,45.03
2019-03-20T10:28:55.841Z,46.41
2019-03-20T10:31:28.194Z,43.73
2019-03-20T10:34:01.485Z,38.93
2019-03-20T10:36:33.847Z,38.93
2019-03-20T10:39:08.301Z,38.31
2019-03-20T10:41:40.241Z,38.75
2019-03-20T10:44:12.602Z,36.92
2019-03-20T10:46:44.973Z,36.69
2019-03-20T10:49:17.253Z,36.42
2019-03-20T10:51:49.634Z,36.83
2019-03-20T10:54:21.580Z,36.94
2019-03-20T10:56:53.547Z,35.75
2019-03-20T10:59:26.381Z,36.28
2019-03-20T11:02:00.783Z,37.03
2019-03-20T11:04:32.724Z,34.97
2019-03-20T11:07:05.281Z,34.95
2019-03-20T11:09:37.666Z,34.29
2019-03-20T11:12:10.028Z,34.76
2019-03-20T11:14:42.408Z,34.96
2019-03-20T11:17:14.778Z,33.72
2019-03-20T11:19:47.207Z,34.70
2019-03-20T11:22:20.904Z,35.75
2019-03-20T11:24:53.234Z,34.70
2019-03-20T11:27:27.760Z,36.46
2019-03-20T11:30:00.343Z,34.59
2019-03-20T11:32:32.589Z,35.00
2019-03-20T11:35:05.571Z,33.79
2019-03-20T11:37:37.943Z,36.15
2019-03-20T11:40:14.947Z,36.32
2019-03-20T11:42:47.294Z,36.85
2019-03-20T11:45:19.721Z,39.97
2019-03-20T11:47:51.686Z,36.95
2019-03-20T11:50:37.096Z,37.38
2019-03-20T11:53:11.235Z,37.24
2019-03-20T11:55:43.603Z,36.96
2019-03-20T11:58:15.987Z,36.59
2019-03-20T12:00:48.349Z,35.72
2019-03-20T12:03:20.726Z,36.14
2019-03-20T12:05:52.651Z,38.07
2019-03-20T12:08:26.684Z,34.94
2019-03-20T12:10:58.763Z,35.22
2019-03-20T12:13:32.471Z,34.27
2019-03-20T12:16:04.826Z,35.28
2019-03-20T12:18:37.511Z,33.88
2019-03-20T12:21:09.885Z,33.71
2019-03-20T12:23:42.566Z,34.17
2019-03-20T12:26:14.930Z,33.35
2019-03-20T12:28:47.302Z,34.66
2019-03-20T12:31:19.676Z,34.58
2019-03-20T12:33:52.048Z,32.73
2019-03-20T12:36:24.411Z,33.01
2019-03-20T12:38:56.887Z,33.18
2019-03-20T12:41:30.281Z,32.54
2019-03-20T12:44:02.263Z,33.26
2019-03-20T12:46:41.338Z,32.42
2019-03-20T12:49:08.641Z,32.70
2019-03-20T12:51:41.006Z,32.04
2019-03-20T12:54:13.387Z,31.58
2019-03-20T12:56:45.758Z,30.90
2019-03-20T12:59:17.709Z,30.92
2019-03-20T13:01:50.080Z,30.07
2019-03-20T13:04:22.465Z,29.37
2019-03-20T13:06:54.835Z,28.70
2019-03-20T13:09:27.196Z,28.83
2019-03-20T13:11:59.578Z,29.34
2019-03-20T13:14:31.963Z,30.26
2019-03-20T13:17:04.325Z,30.05
2019-03-20T13:19:36.477Z,29.97
2019-03-20T13:22:08.855Z,29.46
2019-03-20T13:24:41.221Z,27.80
2019-03-20T13:27:13.597Z,28.03
2019-03-20T13:29:45.974Z,28.37
2019-03-20T13:32:17.943Z,27.91
2019-03-20T13:34:50.301Z,27.88
2019-03-20T13:37:22.688Z,27.35
2019-03-20T13:39:55.052Z,27.01
2019-03-20T13:42:27.425Z,27.08
2019-03-20T13:44:59.356Z,26.06
2019-03-20T13:47:31.758Z,26.53
2019-03-20T13:50:04.428Z,27.22
2019-03-20T13:52:36.807Z,26.21
2019-03-20T13:55:12.143Z,26.28
2019-03-20T13:57:44.514Z,25.55
2019-03-20T14:00:25.186Z,25.93
2019-03-20T14:02:57.571Z,25.95
2019-03-20T14:05:29.928Z,26.32
2019-03-20T14:08:02.306Z,27.28
2019-03-20T14:10:49.410Z,26.62
2019-03-20T14:13:08.685Z,26.82
2019-03-20T14:15:40.609Z,26.79
2019-03-20T14:18:13.026Z,27.13
2019-03-20T14:20:45.412Z,27.78
2019-03-20T14:23:17.767Z,29.59
2019-03-20T14:25:50.133Z,29.95
2019-03-20T14:28:22.516Z,28.93
2019-03-20T14:30:54.888Z,27.71
2019-03-20T14:33:26.858Z,28.13
2019-03-20T14:35:59.728Z,29.10
2019-03-20T14:38:32.102Z,26.89
2019-03-20T14:41:04.275Z,27.33
2019-03-20T14:43:36.639Z,26.15
2019-03-20T14:46:09.665Z,24.66
2019-03-20T14:48:41.991Z,25.42
2019-03-20T14:51:14.363Z,25.32
2019-03-20T14:53:46.747Z,25.72
2019-03-20T14:56:18.692Z,25.35
2019-03-20T14:58:51.082Z,25.99
2019-03-20T15:01:23.498Z,25.66
2019-03-20T15:03:57.659Z,25.95
2019-03-20T15:06:30.034Z,26.83
2019-03-20T15:09:02.408Z,25.17
2019-03-20T15:11:34.884Z,24.88
2019-03-20T15:14:06.841Z,26.29
2019-03-20T15:16:39.106Z,25.25
2019-03-20T15:19:11.693Z,24.08
2019-03-20T15:21:44.059Z,26.01
2019-03-20T15:24:16.042Z,24.17
2019-03-20T15:26:48.390Z,23.40
2019-03-20T15:29:20.800Z,23.94
2019-03-20T15:31:53.190Z,24.58
2019-03-20T15:34:25.519Z,24.69
2019-03-20T15:36:58.906Z,26.81
2019-03-20T15:39:31.285Z,29.33
2019-03-20T15:42:03.647Z,30.55
2019-03-20T15:44:36.024Z,32.58
2019-03-20T15:47:08.290Z,34.10
2019-03-20T15:49:40.260Z,35.09
2019-03-20T15:52:12.180Z,34.67
2019-03-20T15:54:44.585Z,35.79
2019-03-20T15:57:17.896Z,36.24
2019-03-20T15:59:50.256Z,36.18
2019-03-20T16:02:22.624Z,35.53
2019-03-20T16:04:56.226Z,36.26
2019-03-20T16:07:28.600Z,36.71
2019-03-20T16:10:00.972Z,37.15
2019-03-20T16:12:33.353Z,37.65
2019-03-20T16:15:09.297Z,38.52
2019-03-20T16:17:41.668Z,39.17
2019-03-20T16:20:15.386Z,39.43
2019-03-20T16:22:47.761Z,39.81
2019-03-20T16:25:25.853Z,40.25
2019-03-20T16:27:58.231Z,40.11
2019-03-20T16:30:32.494Z,40.77
2019-03-20T16:33:04.821Z,41.44
2019-03-20T16:35:37.193Z,41.88
2019-03-20T16:38:09.564Z,42.47
2019-03-20T16:40:41.970Z,42.49
2019-03-20T16:43:14.296Z,42.39
2019-03-20T16:45:46.673Z,43.55
2019-03-20T16:48:19.050Z,43.87
2019-03-20T16:50:52.039Z,44.62
2019-03-20T16:53:24.406Z,44.87
2019-03-20T16:55:56.779Z,44.48
2019-03-20T16:58:28.695Z,45.06
2019-03-20T17:01:01.003Z,45.26
2019-03-20T17:03:33.389Z,45.75
2019-03-20T17:06:05.758Z,45.40
2019-03-20T17:08:37.746Z,46.23
2019-03-20T17:11:10.082Z,46.80
2019-03-20T17:13:42.464Z,46.85
2019-03-20T17:16:14.394Z,47.49
2019-03-20T17:18:48.032Z,47.54
2019-03-20T17:21:20.403Z,47.69
2019-03-20T17:23:52.778Z,47.75
2019-03-20T17:26:25.132Z,47.73
2019-03-20T17:28:57.507Z,48.10
2019-03-20T17:31:29.881Z,48.77
2019-03-20T17:34:02.251Z,48.41
2019-03-20T17:36:34.627Z,48.55
2019-03-20T17:39:10.377Z,48.49
2019-03-20T17:41:42.746Z,48.29
2019-03-20T17:44:14.711Z,48.63
2019-03-20T17:46:47.078Z,48.91
2019-03-20T17:49:19.457Z,49.90
2019-03-20T17:51:51.721Z,49.79
2019-03-20T17:54:24.195Z,50.29
2019-03-20T17:56:56.568Z,50.76
2019-03-20T17:59:28.522Z,50.43
2019-03-20T18:02:00.902Z,51.12
2019-03-20T18:04:33.202Z,50.52
2019-03-20T18:07:05.553Z,50.82
2019-03-20T18:09:37.922Z,50.83
2019-03-20T18:12:10.306Z,50.65
2019-03-20T18:14:42.669Z,51.18
2019-03-20T18:17:15.338Z,51.52
2019-03-20T18:19:47.712Z,51.81
2019-03-20T18:22:20.095Z,52.08
2019-03-20T18:24:52.276Z,52.36
2019-03-20T18:27:24.624Z,52.45
2019-03-20T18:29:56.998Z,52.49
2019-03-20T18:32:29.369Z,52.25
2019-03-20T18:35:01.331Z,52.29
2019-03-20T18:37:33.718Z,52.61
2019-03-20T18:40:13.239Z,52.23
2019-03-20T18:42:45.517Z,52.22
2019-03-20T18:45:20.887Z,51.49
2019-03-20T18:47:53.233Z,51.41
2019-03-20T18:50:26.107Z,51.22
2019-03-20T18:52:58.379Z,51.72
2019-03-20T18:55:30.831Z,51.16
2019-03-20T18:58:03.222Z,50.96
2019-03-20T19:00:36.843Z,51.24
2019-03-20T19:03:19.249Z,51.36
2019-03-20T19:06:14.550Z,51.00
2019-03-20T19:08:46.895Z,51.40
2019-03-20T19:11:19.388Z,50.35
2019-03-20T19:13:51.539Z,51.06
2019-03-20T19:16:23.521Z,50.82
2019-03-20T19:18:55.907Z,51.15
2019-03-20T19:21:28.482Z,51.06
2019-03-20T19:24:00.863Z,51.09
2019-03-20T19:26:33.327Z,51.26
2019-03-20T19:29:05.692Z,50.67
2019-03-20T19:31:38.061Z,51.08
2019-03-20T19:34:10.442Z,51.30
2019-03-20T19:36:42.811Z,50.93
2019-03-20T19:39:15.224Z,50.98
2019-03-20T19:41:47.178Z,50.49
2019-03-20T19:44:19.573Z,50.14
2019-03-20T19:46:53.310Z,50.64
2019-03-20T19:49:25.696Z,50.50
2019-03-20T19:51:57.655Z,50.11
2019-03-20T19:54:30.019Z,50.69
2019-03-20T19:57:02.083Z,50.84
2019-03-20T19:59:35.627Z,50.92
2019-03-20T20:02:08.157Z,51.02
2019-03-20T20:04:40.428Z,50.41
2019-03-20T20:07:12.499Z,50.75
2019-03-20T20:09:44.436Z,50.79
2019-03-20T20:12:18.951Z,50.77
2019-03-20T20:14:50.429Z,50.41
2019-03-20T20:17:22.401Z,50.97
2019-03-20T20:19:54.324Z,50.22
2019-03-20T20:22:26.724Z,49.71
2019-03-20T20:24:59.097Z,49.87
2019-03-20T20:27:31.917Z,49.97
2019-03-20T20:30:05.374Z,50.17
2019-03-20T20:32:37.749Z,50.19
2019-03-20T20:35:12.183Z,50.36
2019-03-20T20:37:45.886Z,50.30
2019-03-20T20:40:28.993Z,50.07
2019-03-20T20:43:01.372Z,51.09
2019-03-20T20:45:33.635Z,50.57
2019-03-20T20:48:05.848Z,50.61
2019-03-20T20:50:38.179Z,50.50
2019-03-20T20:53:10.554Z,50.65
2019-03-20T20:55:42.713Z,50.94
2019-03-20T20:58:15.099Z,50.79
2019-03-20T21:00:47.479Z,51.27
2019-03-20T21:03:19.839Z,51.21
2019-03-20T21:05:52.107Z,51.47
2019-03-20T21:08:24.484Z,51.38
2019-03-20T21:10:56.742Z,51.70
2019-03-20T21:13:29.116Z,52.06
2019-03-20T21:16:01.798Z,51.85
2019-03-20T21:19:10.311Z,52.17
2019-03-20T21:21:44.634Z,52.22
2019-03-20T21:24:25.608Z,52.22
2019-03-20T21:27:08.828Z,52.34
2019-03-20T21:30:07.010Z,52.23
2019-03-20T21:33:08.366Z,52.54
2019-03-20T21:36:07.870Z,52.48
2019-03-20T21:38:40.243Z,52.85
2019-03-20T21:41:29.005Z,52.56
2019-03-20T21:44:17.953Z,52.85
2019-03-20T21:47:00.769Z,52.95
2019-03-20T21:49:33.150Z,53.52
2019-03-20T21:52:05.410Z,53.13
2019-03-20T21:54:51.196Z,52.98
2019-03-20T21:57:31.089Z,52.89
2019-03-20T22:00:26.250Z,52.80
2019-03-20T22:02:58.630Z,53.16
2019-03-20T22:05:50.352Z,53.15
2019-03-20T22:08:22.730Z,53.48
2019-03-20T22:11:30.983Z,52.91
2019-03-20T22:14:12.712Z,53.09
2019-03-20T22:17:24.432Z,53.58
2019-03-20T22:20:04.169Z,53.69
2019-03-20T22:23:00.711Z,53.67
2019-03-20T22:25:50.597Z,53.93
2019-03-20T22:28:49.897Z,53.99
2019-03-20T22:31:23.292Z,54.55
2019-03-20T22:34:37.950Z,54.50
2019-03-20T22:37:10.322Z,54.29
2019-03-20T22:40:15.496Z,54.32
2019-03-20T22:43:09.814Z,54.61
2019-03-20T22:46:10.846Z,54.70
2019-03-20T22:49:11.097Z,54.38
2019-03-20T22:52:13.809Z,54.51
2019-03-20T22:55:13.614Z,54.75
2019-03-20T22:58:24.666Z,54.96
2019-03-20T23:01:02.301Z,55.01
2019-03-20T23:03:53.876Z,55.33
2019-03-20T23:06:26.185Z,55.57
2019-03-20T23:08:59.678Z,55.72
2019-03-20T23:11:31.619Z,55.54
2019-03-20T23:14:05.036Z,55.70
2019-03-20T23:16:36.974Z,55.78
2019-03-20T23:19:09.375Z,55.97
2019-03-20T23:21:42.675Z,56.12
2019-03-20T23:24:15.037Z,56.33
2019-03-20T23:26:46.973Z,56.62
2019-03-20T23:29:19.380Z,56.84
2019-03-20T23:31:51.310Z,57.04
2019-03-20T23:34:23.273Z,57.12
2019-03-20T23:36:55.568Z,57.35
2019-03-20T23:39:28.971Z,57.25
2019-03-20T23:42:01.534Z,57.62
2019-03-20T23:44:33.916Z,57.64
2019-03-20T23:47:07.319Z,57.71
2019-03-20T23:49:40.701Z,57.57
2019-03-20T23:52:13.180Z,57.66
2019-03-20T23:54:47.490Z,57.90
2019-03-20T23:57:21.343Z,57.69
2019-03-20T23:59:53.773Z,57.75
